Time;durP1;ratioP1;P1;durP2;ratioP2;P2;SDS_P1;SDS_P2;PMS_P1;PMS_P2;Temp;Humidity;BMP_temperature;BMP_pressure;BME280_temperature;BME280_humidity;BME280_pressure;Samples;Min_cycle;Max_cycle;Signal;HPM_P1;HPM_P2
2022/06/21 00:00:37;;;;;;;9.57;5.07;;;;;;;11.89;84.43;101634.50;5028891;28;20615;-63
2022/06/21 00:03:08;;;;;;;10.60;5.90;;;;;;;11.79;85.28;101626.75;5028875;28;20061;-63
2022/06/21 00:05:37;;;;;;;7.13;4.50;;;;;;;11.76;85.62;101622.63;5028904;28;20100;-63
2022/06/21 00:08:05;;;;;;;10.07;5.25;;;;;;;11.78;85.68;101623.25;5027413;28;20036;-63
2022/06/21 00:10:34;;;;;;;34.40;6.82;;;;;;;11.82;85.48;101624.53;5028783;28;20435;-63
2022/06/21 00:13:23;;;;;;;9.82;5.55;;;;;;;11.88;84.64;101624.84;5028728;28;20029;-63
2022/06/21 00:15:53;;;;;;;7.22;4.05;;;;;;;11.84;84.87;101621.66;5029447;28;20045;-63
2022/06/21 00:18:22;;;;;;;8.05;5.00;;;;;;;11.89;84.81;101626.50;5031507;28;20040;-63
2022/06/21 00:20:48;;;;;;;8.90;5.68;;;;;;;11.84;85.00;101619.84;5032713;28;20112;-63
2022/06/21 00:23:16;;;;;;;11.48;4.65;;;;;;;11.87;85.05;101633.84;5032769;28;20017;-63
2022/06/21 00:25:42;;;;;;;10.10;4.80;;;;;;;11.82;84.48;101632.56;5032411;28;20029;-63
2022/06/21 00:28:08;;;;;;;10.75;4.93;;;;;;;11.75;83.91;101630.81;5032570;28;20032;-64
2022/06/21 00:30:33;;;;;;;10.20;6.05;;;;;;;11.72;84.50;101641.88;5032630;28;20418;-63
2022/06/21 00:32:59;;;;;;;13.48;5.07;;;;;;;11.68;85.35;101632.56;5032294;28;20029;-63
2022/06/21 00:35:26;;;;;;;10.55;5.05;;;;;;;11.62;85.74;101624.25;5031071;28;20045;-63
2022/06/21 00:37:53;;;;;;;7.75;5.25;;;;;;;11.55;86.18;101622.50;5032406;28;20542;-64
2022/06/21 00:40:18;;;;;;;8.45;4.85;;;;;;;11.53;86.32;101622.72;5032260;28;20370;-64
2022/06/21 00:42:48;;;;;;;11.48;5.40;;;;;;;11.51;86.15;101626.56;5032243;28;20035;-64
2022/06/21 00:45:26;;;;;;;11.07;5.95;;;;;;;11.46;85.90;101626.28;5032385;28;20101;-63
2022/06/21 00:47:55;;;;;;;9.18;5.22;;;;;;;11.44;86.10;101622.97;5032062;28;20076;-63
2022/06/21 00:50:26;;;;;;;10.05;5.57;;;;;;;11.46;86.10;101629.78;5032121;28;20358;-63
2022/06/21 00:53:05;;;;;;;14.05;7.05;;;;;;;11.42;86.32;101628.47;5032104;28;20021;-63
2022/06/21 00:55:43;;;;;;;12.30;5.93;;;;;;;11.39;86.60;101628.84;5032029;28;20045;-63
2022/06/21 00:58:11;;;;;;;11.13;5.97;;;;;;;11.37;86.67;101612.19;5031950;28;20029;-64
2022/06/21 01:00:54;;;;;;;12.65;5.55;;;;;;;11.35;86.88;101617.72;5031997;28;20082;-63
2022/06/21 01:03:42;;;;;;;11.07;6.25;;;;;;;11.32;86.32;101615.41;5031639;28;20040;-64
2022/06/21 01:06:13;;;;;;;11.73;5.03;;;;;;;11.28;86.79;101614.09;5031822;28;20033;-63
2022/06/21 01:08:43;;;;;;;12.40;5.97;;;;;;;11.24;86.76;101615.50;5031848;28;20029;-63
2022/06/21 01:11:17;;;;;;;9.73;4.88;;;;;;;11.17;87.06;101610.03;5031739;28;20640;-63
2022/06/21 01:13:46;;;;;;;12.95;5.93;;;;;;;11.14;87.54;101613.09;5031652;28;20032;-63
2022/06/21 01:16:12;;;;;;;10.45;5.85;;;;;;;11.14;87.06;101612.25;5031751;28;20079;-63
2022/06/21 01:18:40;;;;;;;9.60;5.10;;;;;;;11.11;87.23;101607.28;5031697;28;20373;-63
2022/06/21 01:21:07;;;;;;;9.95;5.80;;;;;;;11.11;87.14;101607.28;5031541;28;20393;-63
2022/06/21 01:23:50;;;;;;;9.48;5.82;;;;;;;11.08;87.36;101597.81;5031592;28;20033;-63
2022/06/21 01:26:36;;;;;;;10.73;5.95;;;;;;;11.03;87.39;101592.19;5030825;28;20030;-63
2022/06/21 01:29:06;;;;;;;14.80;6.70;;;;;;;11.08;87.54;101597.81;5031527;28;20025;-63
2022/06/21 01:31:32;;;;;;;11.25;5.68;;;;;;;11.02;88.19;101589.69;5031358;28;20037;-64
2022/06/21 01:33:58;;;;;;;14.25;5.68;;;;;;;10.91;88.41;101589.09;5031385;28;20519;-63
2022/06/21 01:36:28;;;;;;;11.18;5.80;;;;;;;10.80;89.01;101594.06;5031294;28;20033;-63
2022/06/21 01:39:11;;;;;;;9.75;5.60;;;;;;;10.78;89.42;101609.41;5030056;28;20436;-64
2022/06/21 01:41:46;;;;;;;12.35;6.20;;;;;;;10.78;89.26;101598.72;5031360;28;20079;-63
2022/06/21 01:44:18;;;;;;;12.30;5.97;;;;;;;10.78;89.21;101596.88;5031250;28;20029;-63
2022/06/21 01:46:44;;;;;;;;;;;;;;;10.78;87.97;101604.06;5031586;28;20091;-63
2022/06/21 01:49:14;;;;;;;14.23;7.18;;;;;;;10.66;89.84;101603.66;5030954;28;19929;-64
2022/06/21 01:51:51;;;;;;;16.58;6.03;;;;;;;10.61;90.05;101606.03;5030782;28;20124;-63
2022/06/21 01:54:22;;;;;;;10.95;5.60;;;;;;;10.61;90.16;101606.88;5030999;28;20025;-63
2022/06/21 01:56:48;;;;;;;10.05;5.85;;;;;;;10.58;90.87;101601.88;5031213;28;20029;-63
2022/06/21 01:59:19;;;;;;;12.77;6.57;;;;;;;10.49;91.29;101602.94;5030957;28;20033;-63
2022/06/21 02:01:44;;;;;;;13.07;6.50;;;;;;;10.43;91.49;101599.16;5030777;28;20118;-63
2022/06/21 02:04:13;;;;;;;14.87;7.43;;;;;;;10.37;92.30;101594.50;5030834;28;20037;-65
2022/06/21 02:06:43;;;;;;;11.57;6.20;;;;;;;10.28;92.30;101579.59;5030782;28;20695;-65
2022/06/21 02:09:20;;;;;;;14.45;7.10;;;;;;;10.19;92.64;101584.13;5030698;28;20037;-65
2022/06/21 02:12:00;;;;;;;14.02;7.18;;;;;;;10.15;93.20;101576.66;5030834;28;20040;-65
2022/06/21 02:14:28;;;;;;;14.15;7.25;;;;;;;10.12;93.79;101577.81;5030546;28;20021;-65
2022/06/21 02:17:00;;;;;;;18.75;9.70;;;;;;;10.07;94.13;101582.84;5030356;28;20040;-65
2022/06/21 02:19:38;;;;;;;21.65;10.70;;;;;;;10.09;94.46;101578.19;5030560;28;20027;-65
2022/06/21 02:22:05;;;;;;;19.77;8.93;;;;;;;10.14;94.23;101586.47;5030436;28;20049;-65
2022/06/21 02:24:31;;;;;;;15.60;6.40;;;;;;;10.17;93.41;101585.31;5029105;28;20025;-65
2022/06/21 02:26:59;;;;;;;16.50;8.13;;;;;;;10.18;93.94;101576.28;5030519;28;20481;-65
2022/06/21 02:29:25;;;;;;;18.83;9.20;;;;;;;10.16;93.97;101559.63;5030368;28;20100;-65
2022/06/21 02:31:50;;;;;;;19.23;8.77;;;;;;;10.13;94.11;101560.81;5030010;28;20120;-65
2022/06/21 02:34:22;;;;;;;19.27;8.55;;;;;;;10.09;94.94;101568.34;5030157;28;20037;-65
2022/06/21 02:36:53;;;;;;;16.02;8.30;;;;;;;10.09;94.81;101554.19;5029890;28;20420;-65
2022/06/21 02:39:23;;;;;;;15.93;8.13;;;;;;;10.05;94.86;101548.38;5029491;28;20029;-65
2022/06/21 02:41:58;;;;;;;17.52;8.60;;;;;;;10.03;95.10;101529.09;5030105;28;20032;-65
2022/06/21 02:44:27;;;;;;;15.80;8.02;;;;;;;10.02;95.07;101524.75;5029925;28;20035;-65
2022/06/21 02:46:59;;;;;;;17.55;8.20;;;;;;;10.00;95.05;101516.09;5028786;28;20033;-65
2022/06/21 02:49:49;;;;;;;19.65;8.32;;;;;;;9.98;95.72;101522.59;5029760;28;20055;-65
2022/06/21 02:52:38;;;;;;;16.67;7.45;;;;;;;10.00;95.69;101518.75;5029821;28;20022;-65
2022/06/21 02:55:03;;;;;;;17.38;7.35;;;;;;;10.07;94.96;101529.56;5030117;28;20035;-65
2022/06/21 02:57:42;;;;;;;15.63;7.57;;;;;;;10.10;94.03;101526.53;5029854;28;20621;-66
2022/06/21 03:00:15;;;;;;;14.52;7.10;;;;;;;10.10;93.07;101532.69;5029805;28;20075;-66
2022/06/21 03:02:40;;;;;;;16.73;7.63;;;;;;;10.10;92.64;101530.00;5029628;28;20037;-66
2022/06/21 03:05:13;;;;;;;15.77;7.45;;;;;;;10.12;92.86;101524.53;5029689;28;20029;-66
2022/06/21 03:07:42;;;;;;;15.20;7.47;;;;;;;10.13;92.32;101536.00;5029484;28;20056;-66
2022/06/21 03:10:21;;;;;;;15.80;7.72;;;;;;;10.12;92.44;101545.84;5029582;28;20053;-66
2022/06/21 03:12:50;;;;;;;17.08;7.40;;;;;;;10.15;91.82;101552.66;5028304;28;20379;-66
2022/06/21 03:15:16;;;;;;;11.10;6.50;;;;;;;10.15;91.49;101555.31;5029032;28;20468;-66
2022/06/21 03:18:01;;;;;;;14.45;7.95;;;;;;;10.16;91.46;101556.97;5029305;28;20033;-66
2022/06/21 03:20:27;;;;;;;13.30;7.03;;;;;;;10.16;91.50;101557.78;5029412;28;20026;-66
2022/06/21 03:22:54;;;;;;;16.10;7.72;;;;;;;10.19;92.14;101568.13;5029646;28;20095;-66
2022/06/21 03:25:23;;;;;;;15.18;6.80;;;;;;;10.23;91.72;101571.25;5029468;28;20036;-66
2022/06/21 03:27:53;;;;;;;14.60;7.35;;;;;;;10.25;92.03;101561.25;5029338;28;20025;-66
2022/06/21 03:30:23;;;;;;;16.88;7.05;;;;;;;10.28;92.03;101574.25;5029239;28;20029;-66
2022/06/21 03:32:51;;;;;;;12.35;6.68;;;;;;;10.31;91.43;101579.22;5029301;28;20029;-66
2022/06/21 03:35:17;;;;;;;14.85;7.88;;;;;;;10.34;91.41;101573.53;5029262;28;20029;-66
2022/06/21 03:37:43;;;;;;;12.68;6.75;;;;;;;10.29;91.02;101565.25;5029107;28;20022;-66
2022/06/21 03:43:43;;;;;;;16.67;9.23;;;;;;;10.27;91.63;101559.22;5027576;28;20116;-66
2022/06/21 03:46:16;;;;;;;13.77;7.00;;;;;;;10.13;91.87;101554.66;5023386;28;20060;-66
2022/06/21 03:48:54;;;;;;;12.40;6.85;;;;;;;10.05;92.40;101535.03;5028609;28;20053;-66
2022/06/21 03:51:26;;;;;;;13.95;8.43;;;;;;;9.99;92.91;101529.59;5028901;28;20030;-66
2022/06/21 03:53:58;;;;;;;15.18;8.95;;;;;;;9.92;92.74;101521.47;5029129;28;20029;-66
2022/06/21 03:56:29;;;;;;;12.70;7.45;;;;;;;9.88;93.00;101526.34;5028595;28;20056;-66
2022/06/21 03:59:05;;;;;;;15.23;7.68;;;;;;;9.93;93.83;101533.81;5028916;28;20485;-66
2022/06/21 04:01:56;;;;;;;15.55;7.78;;;;;;;9.98;94.24;101525.25;5028881;28;20476;-66
2022/06/21 04:04:53;;;;;;;15.75;8.60;;;;;;;10.00;94.19;101513.41;5028878;28;20079;-66
2022/06/21 04:07:36;;;;;;;17.90;7.63;;;;;;;10.09;94.25;101520.38;5028794;28;20063;-66
2022/06/21 04:10:16;;;;;;;15.18;7.63;;;;;;;10.13;91.97;101525.34;5028746;28;20484;-66
2022/06/21 04:12:49;;;;;;;13.73;7.25;;;;;;;10.10;91.92;101531.84;5028607;28;20057;-66
2022/06/21 04:15:28;;;;;;;14.90;6.78;;;;;;;10.15;91.66;101540.16;5028657;28;20044;-66
2022/06/21 04:18:12;;;;;;;17.30;7.80;;;;;;;10.26;90.85;101538.91;5028768;28;20084;-66
2022/06/21 04:21:09;;;;;;;11.50;6.65;;;;;;;10.40;90.97;101540.00;5028832;28;20032;-66
2022/06/21 04:23:57;;;;;;;15.25;7.05;;;;;;;10.51;91.30;101537.75;5028594;28;20083;-66
2022/06/21 04:26:28;;;;;;;15.48;8.10;;;;;;;10.57;91.27;101530.88;5028691;28;20582;-66
2022/06/21 04:29:05;;;;;;;21.63;9.23;;;;;;;10.73;91.18;101535.22;5028590;28;20124;-66
2022/06/21 04:31:40;;;;;;;32.80;11.05;;;;;;;10.85;90.56;101536.47;5028548;28;20029;-66
2022/06/21 04:34:14;;;;;;;16.90;9.10;;;;;;;10.88;90.53;101535.28;5028694;28;20519;-66
2022/06/21 04:36:47;;;;;;;16.65;9.13;;;;;;;10.90;90.68;101530.59;5028262;28;20030;-66
2022/06/21 04:39:28;;;;;;;14.02;8.15;;;;;;;10.97;91.23;101540.31;5028560;28;20396;-66
2022/06/21 04:42:06;;;;;;;15.27;8.57;;;;;;;11.22;90.18;101528.59;5028511;28;20026;-66
2022/06/21 04:44:41;;;;;;;16.83;9.13;;;;;;;11.61;88.38;101528.28;5028395;28;20053;-66
2022/06/21 04:47:22;;;;;;;18.55;8.63;;;;;;;11.75;87.38;101522.06;5028433;28;20028;-66
2022/06/21 04:50:21;;;;;;;17.55;8.88;;;;;;;11.77;87.30;101520.03;5028285;28;20057;-66
2022/06/21 04:53:00;;;;;;;19.95;9.55;;;;;;;11.73;87.63;101512.56;5024100;28;20036;-66
2022/06/21 04:55:38;;;;;;;18.10;10.20;;;;;;;11.71;87.86;101518.13;5028379;28;20033;-66
2022/06/21 04:58:04;;;;;;;14.68;8.50;;;;;;;11.72;87.77;101509.06;5028729;28;20374;-66
2022/06/21 05:00:29;;;;;;;17.77;9.43;;;;;;;11.79;88.13;101512.66;5028652;28;20060;-66
2022/06/21 05:03:02;;;;;;;15.63;9.55;;;;;;;11.85;88.31;101513.75;5031994;28;20029;-66
2022/06/21 05:05:33;;;;;;;16.75;9.13;;;;;;;11.98;88.24;101523.78;5032064;28;20021;-66
2022/06/21 05:08:10;;;;;;;15.15;8.73;;;;;;;12.29;86.90;101512.78;5031862;28;20029;-66
2022/06/21 05:10:41;;;;;;;15.50;8.35;;;;;;;12.77;85.72;101509.47;5031806;28;20472;-66
2022/06/21 05:13:18;;;;;;;18.48;8.50;;;;;;;13.04;84.73;101513.97;5031888;28;20025;-66
2022/06/21 05:15:44;;;;;;;16.95;7.68;;;;;;;12.97;84.08;101512.28;5032101;28;20045;-66
2022/06/21 05:18:19;;;;;;;17.25;9.52;;;;;;;12.92;84.75;101512.88;5031661;28;20110;-66
2022/06/21 05:20:56;;;;;;;17.08;7.88;;;;;;;12.87;85.08;101507.28;5031513;28;20060;-66
2022/06/21 05:23:23;;;;;;;15.63;8.13;;;;;;;12.91;84.86;101520.06;5031585;28;20158;-66
2022/06/21 05:25:50;;;;;;;16.90;7.85;;;;;;;12.99;84.45;101521.75;5031429;28;20441;-66
2022/06/21 05:28:40;;;;;;;15.35;7.80;;;;;;;13.03;84.11;101523.03;5031494;28;20400;-63
2022/06/21 05:31:24;;;;;;;12.15;6.40;;;;;;;13.05;84.59;101518.31;5031350;28;20021;-63
2022/06/21 05:34:05;;;;;;;13.68;7.03;;;;;;;13.10;83.65;101515.06;5031531;28;20037;-63
2022/06/21 05:36:35;;;;;;;15.93;8.68;;;;;;;13.10;83.42;101502.50;5031359;28;20057;-63
2022/06/21 05:39:11;;;;;;;16.20;8.98;;;;;;;13.12;83.74;101504.97;5029939;28;20392;-63
2022/06/21 05:41:41;;;;;;;19.23;7.85;;;;;;;13.25;82.62;101509.56;5031137;28;20025;-63
2022/06/21 05:44:13;;;;;;;12.90;6.82;;;;;;;13.29;81.50;101509.00;5031270;28;20041;-64
2022/06/21 05:46:45;;;;;;;14.15;6.78;;;;;;;13.25;81.52;101501.53;5031328;28;20040;-63
2022/06/21 05:49:21;;;;;;;13.90;6.38;;;;;;;13.30;82.15;101528.59;5030987;28;20045;-64
2022/06/21 05:51:47;;;;;;;12.38;6.43;;;;;;;13.35;80.57;101520.78;5030795;28;20040;-63
2022/06/21 05:54:16;;;;;;;10.02;5.85;;;;;;;13.34;81.15;101525.31;5031061;28;20060;-63
2022/06/21 05:56:42;;;;;;;12.15;6.25;;;;;;;13.40;81.51;101522.88;5031162;28;20492;-63
2022/06/21 05:59:13;;;;;;;12.60;6.00;;;;;;;13.51;81.33;101520.44;5030741;28;20124;-63
2022/06/21 06:01:46;;;;;;;11.52;6.20;;;;;;;13.69;81.17;101522.56;5031315;28;20036;-63
2022/06/21 06:04:37;;;;;;;12.07;6.68;;;;;;;13.98;80.29;101537.50;5030593;28;20021;-63
2022/06/21 06:07:04;;;;;;;9.55;6.13;;;;;;;14.19;79.27;101535.72;5030712;28;20111;-63
2022/06/21 06:09:39;;;;;;;9.82;5.07;;;;;;;14.20;78.45;101537.34;5030768;28;20029;-63
2022/06/21 06:12:13;;;;;;;11.20;5.15;;;;;;;14.07;78.92;101538.19;5030370;28;20485;-64
2022/06/21 06:15:03;;;;;;;12.07;6.80;;;;;;;14.00;80.68;101556.91;5030584;28;20040;-64
2022/06/21 06:17:39;;;;;;;8.45;4.03;;;;;;;13.94;79.42;101551.56;5030974;28;20044;-64
2022/06/21 06:20:11;;;;;;;8.85;4.47;;;;;;;13.92;79.59;101562.47;5030514;28;20306;-64
2022/06/21 06:22:43;;;;;;;12.57;4.35;;;;;;;13.93;79.71;101560.59;5030364;28;20022;-64
2022/06/21 06:25:43;;;;;;;8.82;3.50;;;;;;;13.91;79.32;101560.81;5030373;28;20477;-63
2022/06/21 06:28:46;;;;;;;10.50;4.40;;;;;;;13.97;79.35;101575.28;5030636;28;20030;-63
2022/06/21 06:31:31;;;;;;;11.77;4.57;;;;;;;14.03;79.65;101574.47;5030337;28;20079;-64
2022/06/21 06:34:05;;;;;;;9.32;3.88;;;;;;;14.10;79.30;101569.94;5030235;28;20037;-64
2022/06/21 06:36:36;;;;;;;7.82;4.10;;;;;;;14.18;78.80;101566.25;5026330;28;20068;-64
2022/06/21 06:39:12;;;;;;;7.00;4.22;;;;;;;14.27;79.20;101580.31;5025444;28;20025;-65
2022/06/21 06:41:50;;;;;;;9.38;4.20;;;;;;;14.27;77.57;101573.06;5025804;28;20675;-63
2022/06/21 06:44:16;;;;;;;10.55;3.28;;;;;;;14.35;78.68;101577.44;5029068;28;20029;-65
2022/06/21 06:46:49;;;;;;;6.68;3.92;;;;;;;14.39;77.79;101576.00;5028429;28;20038;-65
2022/06/21 06:49:52;;;;;;;10.38;4.43;;;;;;;14.48;77.18;101566.72;5029735;28;20568;-66
2022/06/21 06:52:24;;;;;;;8.45;3.88;;;;;;;14.52;75.49;101567.16;5008462;28;20049;-65
2022/06/21 06:54:54;;;;;;;;;;;;;;;14.60;77.05;101572.34;5030291;28;20476;-65
2022/06/21 06:57:41;;;;;;;8.68;4.97;;;;;;;14.65;76.04;101578.75;5012036;28;19999;-65
2022/06/21 07:00:21;;;;;;;9.77;4.43;;;;;;;14.75;75.20;101580.19;5029784;28;20083;-65
2022/06/21 07:02:52;;;;;;;6.72;4.40;;;;;;;14.80;75.07;101578.56;5028389;28;20036;-65
2022/06/21 07:05:31;;;;;;;10.75;4.95;;;;;;;14.87;76.32;101584.72;5029642;28;20083;-65
2022/06/21 07:08:04;;;;;;;10.48;3.92;;;;;;;14.90;73.19;101580.81;5029695;28;20024;-68
2022/06/21 07:10:30;;;;;;;10.27;4.80;;;;;;;14.91;73.52;101579.78;5029522;28;20075;-68
2022/06/21 07:12:56;;;;;;;6.50;4.55;;;;;;;14.98;74.14;101580.59;5029568;28;20069;-69
2022/06/21 07:15:33;;;;;;;9.15;3.60;;;;;;;15.07;73.31;101582.03;5029447;28;20511;-68
2022/06/21 07:17:59;;;;;;;10.25;4.07;;;;;;;15.12;72.43;101576.88;5029459;28;20025;-68
2022/06/21 07:20:32;;;;;;;10.43;4.20;;;;;;;15.17;73.17;101576.25;5029528;28;20083;-68
2022/06/21 07:22:58;;;;;;;10.55;4.35;;;;;;;15.26;72.49;101571.47;5029411;28;20018;-68
2022/06/21 07:25:44;;;;;;;8.85;4.20;;;;;;;15.42;73.60;101578.25;5028813;28;20026;-69
2022/06/21 07:28:23;;;;;;;8.90;3.75;;;;;;;15.48;71.49;101572.03;5029238;28;20554;-69
2022/06/21 07:30:52;;;;;;;9.98;4.55;;;;;;;15.48;69.58;101559.44;5029209;28;20059;-69
2022/06/21 07:33:45;;;;;;;8.13;4.57;;;;;;;15.55;71.69;101548.63;5029234;28;20112;-68
2022/06/21 07:36:18;;;;;;;8.57;4.65;;;;;;;15.61;69.32;101547.78;5024747;28;20041;-72
2022/06/21 07:38:49;;;;;;;9.82;3.72;;;;;;;15.71;70.11;101558.13;5029246;28;20025;-68
2022/06/21 07:41:23;;;;;;;12.48;3.75;;;;;;;15.75;68.63;101560.19;5029200;28;20080;-69
2022/06/21 07:43:55;;;;;;;7.32;3.70;;;;;;;15.84;67.91;101560.75;5029133;28;20029;-69
2022/06/21 07:46:25;;;;;;;;;;;;;;;15.93;68.13;101566.72;5029427;28;20072;-68
2022/06/21 07:48:54;;;;;;;6.47;3.53;;;;;;;16.03;68.47;101561.69;5028774;28;19925;-71
2022/06/21 07:51:22;;;;;;;10.30;4.63;;;;;;;16.15;67.73;101557.28;5028871;28;20041;-71
2022/06/21 07:54:01;;;;;;;10.55;4.28;;;;;;;16.21;67.29;101551.00;5024142;28;20440;-71
2022/06/21 07:56:31;;;;;;;9.38;4.60;;;;;;;16.32;65.52;101554.06;5024639;28;20039;-68
2022/06/21 07:59:02;;;;;;;10.63;4.63;;;;;;;16.37;65.12;101556.91;5024619;28;20033;-69
2022/06/21 08:07:38;;;;;;;15.77;4.97;;;;;;;16.97;65.05;101551.09;5025132;28;20072;-68
2022/06/21 08:10:16;;;;;;;5.78;2.97;;;;;;;18.04;60.83;101548.00;5022961;28;20420;-69
2022/06/21 08:12:42;;;;;;;4.35;3.10;;;;;;;19.34;57.43;101543.56;5026614;28;20448;-69
2022/06/21 08:15:08;;;;;;;11.18;4.03;;;;;;;20.72;53.47;101533.44;5028959;28;20041;-68
2022/06/21 08:17:59;;;;;;;9.60;3.75;;;;;;;22.77;52.44;101530.31;5029282;28;20114;-69
2022/06/21 08:20:49;;;;;;;8.07;3.65;;;;;;;23.39;48.96;101526.03;5028989;28;20070;-69
2022/06/21 08:23:24;;;;;;;8.45;3.35;;;;;;;24.01;45.16;101527.06;5028545;28;20030;-69
2022/06/21 08:26:03;;;;;;;8.68;3.03;;;;;;;23.79;46.22;101530.03;5028746;28;20033;-68
2022/06/21 08:28:37;;;;;;;13.20;3.38;;;;;;;22.86;47.14;101533.34;5028725;28;20040;-69
2022/06/21 08:31:11;;;;;;;6.53;3.55;;;;;;;23.02;47.23;101532.38;5028617;28;20021;-68
2022/06/21 08:34:03;;;;;;;7.55;3.70;;;;;;;23.22;47.96;101537.13;5028600;28;20108;-68
2022/06/21 08:36:43;;;;;;;7.78;3.58;;;;;;;23.35;45.40;101536.66;5030537;28;20061;-68
2022/06/21 08:39:24;;;;;;;8.50;3.08;;;;;;;23.14;45.72;101522.13;5032476;28;20481;-68
2022/06/21 08:42:14;;;;;;;5.47;2.92;;;;;;;23.25;44.05;101519.44;5031027;28;20424;-68
2022/06/21 08:48:08;;;;;;;5.18;2.90;;;;;;;25.63;40.80;101501.69;5022845;28;20060;-69
2022/06/21 08:50:46;;;;;;;5.32;3.20;;;;;;;25.17;41.07;101496.44;5032081;28;20052;-68
2022/06/21 08:53:30;;;;;;;9.57;3.53;;;;;;;25.02;40.56;101498.09;5032515;28;20029;-68
2022/06/21 08:56:21;;;;;;;7.00;2.80;;;;;;;25.77;41.00;101503.47;5032233;28;20029;-69
2022/06/21 08:58:58;;;;;;;6.88;3.25;;;;;;;25.74;38.92;101500.50;5032263;28;20056;-70
2022/06/21 09:02:00;;;;;;;9.07;3.67;;;;;;;24.68;42.44;101476.06;5031949;28;20033;-69
2022/06/21 09:04:39;;;;;;;6.32;3.00;;;;;;;23.91;40.99;101465.19;5032070;28;20021;-69
2022/06/21 09:07:23;;;;;;;5.50;2.83;;;;;;;23.37;43.03;101465.59;5031841;28;20025;-68
2022/06/21 09:09:54;;;;;;;7.18;3.25;;;;;;;22.19;44.35;101454.06;5031833;28;20108;-72
2022/06/21 09:12:43;;;;;;;6.78;3.10;;;;;;;21.03;47.57;101457.94;5031702;28;20029;-69
2022/06/21 09:15:30;;;;;;;6.18;3.10;;;;;;;20.32;49.48;101458.50;5031631;28;20037;-72
2022/06/21 09:18:07;;;;;;;9.02;3.22;;;;;;;20.01;51.69;101459.91;5031382;28;20091;-71
2022/06/21 09:20:52;;;;;;;6.80;4.05;;;;;;;19.81;51.94;101463.09;5031633;28;20435;-71
2022/06/21 09:23:40;;;;;;;9.90;4.57;;;;;;;19.61;53.21;101457.25;5031555;28;20020;-74
2022/06/21 09:26:33;;;;;;;7.20;3.78;;;;;;;19.30;52.52;101458.53;5031643;28;20030;-73
2022/06/21 09:29:24;;;;;;;6.82;4.03;;;;;;;18.92;53.52;101446.41;5032107;28;20037;-73
2022/06/21 09:32:02;;;;;;;8.40;3.80;;;;;;;18.86;52.85;101442.75;5031084;28;20033;-72
2022/06/21 09:34:42;;;;;;;8.23;3.92;;;;;;;18.87;53.00;101440.91;5031363;28;20108;-73
2022/06/21 09:37:18;;;;;;;6.53;3.47;;;;;;;18.87;53.63;101433.63;5031403;28;20041;-73
2022/06/21 09:39:59;;;;;;;12.60;4.97;;;;;;;18.93;54.50;101431.84;5031262;28;20481;-72
2022/06/21 09:42:38;;;;;;;7.60;3.55;;;;;;;18.91;53.46;101434.75;5031297;28;20033;-73
2022/06/21 09:45:33;;;;;;;11.13;4.85;;;;;;;18.82;53.47;101422.69;5031090;28;20033;-70
2022/06/21 09:48:25;;;;;;;7.47;3.90;;;;;;;18.79;55.48;101431.28;5018512;28;20042;-71
2022/06/21 09:51:14;;;;;;;8.38;4.53;;;;;;;18.80;54.33;101430.22;5030728;28;20049;-70
2022/06/21 09:53:43;;;;;;;5.35;3.92;;;;;;;18.76;53.58;101419.06;5030982;28;20025;-70
2022/06/21 09:56:08;;;;;;;4.80;4.05;;;;;;;18.96;54.82;101417.84;5031044;28;20385;-70
2022/06/21 09:59:06;;;;;;;9.33;4.00;;;;;;;18.99;53.24;101438.97;5030929;28;20040;-70
2022/06/21 10:01:34;;;;;;;7.63;4.32;;;;;;;18.92;53.72;101433.72;5023195;28;20307;-70
2022/06/21 10:04:05;;;;;;;9.30;4.55;;;;;;;19.05;55.28;101427.22;5030865;28;20029;-71
2022/06/21 10:06:44;;;;;;;10.80;4.63;;;;;;;19.17;53.31;101419.88;5030885;28;20057;-69
2022/06/21 10:09:52;;;;;;;5.03;3.30;;;;;;;19.33;54.69;101422.91;5030835;28;20152;-69
2022/06/21 10:12:38;;;;;;;5.82;3.35;;;;;;;19.55;52.70;101426.59;5010841;28;20038;-68
2022/06/21 10:15:03;;;;;;;7.70;3.47;;;;;;;19.48;51.49;101418.59;5030613;28;20099;-72
2022/06/21 10:17:38;;;;;;;9.40;3.60;;;;;;;19.27;51.69;101414.69;5030687;28;20072;-68
2022/06/21 10:20:44;;;;;;;7.63;3.67;;;;;;;19.10;53.28;101412.97;5030287;28;20303;-68
2022/06/21 10:23:24;;;;;;;10.90;4.53;;;;;;;19.10;53.81;101429.19;5026401;28;20558;-69
2022/06/21 10:26:14;;;;;;;11.13;4.18;;;;;;;19.09;53.89;101431.09;5030726;28;20151;-68
2022/06/21 10:28:49;;;;;;;7.38;3.38;;;;;;;19.14;51.52;101427.66;5030382;28;20032;-68
2022/06/21 10:31:51;;;;;;;7.80;2.72;;;;;;;19.19;51.38;101431.28;5030132;28;20075;-68
2022/06/21 10:34:35;;;;;;;4.63;2.28;;;;;;;19.32;50.76;101422.09;5030227;28;20034;-68
2022/06/21 10:37:15;;;;;;;8.45;3.92;;;;;;;19.40;51.29;101424.41;5030827;28;20423;-68
2022/06/21 10:39:43;;;;;;;6.75;4.60;;;;;;;19.46;52.37;101423.44;5030198;28;20068;-68
2022/06/21 10:42:48;;;;;;;5.65;2.88;;;;;;;19.59;51.45;101438.53;5028867;28;20358;-64
2022/06/21 10:45:35;;;;;;;4.82;2.33;;;;;;;19.75;50.34;101426.13;5030140;28;20073;-65
2022/06/21 10:48:18;;;;;;;5.43;2.50;;;;;;;19.82;50.39;101426.81;5030566;28;20752;-64
2022/06/21 10:51:10;;;;;;;19.33;5.28;;;;;;;19.73;49.03;101422.03;5029917;28;20038;-63
2022/06/21 10:53:44;;;;;;;4.68;2.63;;;;;;;19.58;49.87;101419.88;5029881;28;20060;-64
2022/06/21 10:59:24;;;;;;;5.18;3.00;;;;;;;19.70;51.10;101439.59;5014629;28;20435;-64
2022/06/21 11:02:00;;;;;;;10.63;3.25;;;;;;;19.76;51.34;101429.69;5029978;28;20393;-64
2022/06/21 11:04:59;;;;;;;6.90;3.17;;;;;;;19.84;52.54;101423.88;5029676;28;20583;-64
2022/06/21 11:07:35;;;;;;;9.90;3.28;;;;;;;19.78;49.49;101422.97;5029846;28;20104;-64
2022/06/21 11:10:21;;;;;;;3.53;2.13;;;;;;;19.67;50.05;101432.78;5029270;28;20029;-64
2022/06/21 11:12:54;;;;;;;5.18;2.97;;;;;;;19.58;50.13;101431.50;5029506;28;20469;-64
2022/06/21 11:15:48;;;;;;;5.55;2.60;;;;;;;19.49;49.70;101425.66;5029388;28;20492;-64
2022/06/21 11:18:23;;;;;;;4.22;2.00;;;;;;;19.48;49.81;101423.19;5029557;28;20043;-64
2022/06/21 11:21:16;;;;;;;4.65;2.42;;;;;;;19.56;51.37;101422.81;5029438;28;20512;-64
2022/06/21 11:24:06;;;;;;;2.67;2.17;;;;;;;19.67;48.37;101430.06;5029600;28;20523;-64
2022/06/21 11:26:58;;;;;;;5.45;3.17;;;;;;;19.77;49.75;101418.59;5029435;28;20029;-64
2022/06/21 11:29:23;;;;;;;5.55;2.95;;;;;;;19.80;48.38;101422.72;5018968;28;20045;-64
2022/06/21 11:32:33;;;;;;;3.47;3.05;;;;;;;19.84;50.58;101432.00;5029226;28;20040;-64
2022/06/21 11:35:19;;;;;;;4.20;2.65;;;;;;;19.84;49.75;101421.16;5013289;28;20044;-64
2022/06/21 11:37:45;;;;;;;5.82;2.15;;;;;;;19.86;50.24;101421.75;5029162;28;20095;-64
2022/06/21 11:40:33;;;;;;;4.68;2.47;;;;;;;19.93;48.31;101417.78;5029247;28;20484;-65
2022/06/21 11:42:59;;;;;;;3.83;2.33;;;;;;;19.89;48.81;101418.56;5029259;28;20028;-64
2022/06/21 11:45:45;;;;;;;3.70;2.55;;;;;;;19.89;50.15;101418.56;5029311;28;20379;-64
2022/06/21 11:48:29;;;;;;;2.95;1.90;;;;;;;19.85;49.54;101426.31;5028962;28;20060;-64
2022/06/21 11:51:10;;;;;;;3.88;2.00;;;;;;;19.79;48.91;101427.31;5029000;28;20033;-64
2022/06/21 11:53:39;;;;;;;3.28;2.47;;;;;;;19.64;48.59;101425.09;5028951;28;20037;-64
2022/06/21 11:56:49;;;;;;;6.63;2.25;;;;;;;19.64;50.35;101419.69;5028998;28;20033;-64
2022/06/21 11:59:23;;;;;;;4.97;2.65;;;;;;;19.66;49.64;101414.91;5028768;28;20076;-64
2022/06/21 12:02:17;;;;;;;2.88;2.40;;;;;;;19.63;49.09;101409.94;5029143;28;20110;-64
2022/06/21 12:04:58;;;;;;;3.08;2.28;;;;;;;19.60;50.24;101409.63;5018776;28;20116;-64
2022/06/21 12:07:32;;;;;;;4.13;1.88;;;;;;;19.64;49.71;101402.66;5028679;28;20032;-64
2022/06/21 12:10:16;;;;;;;12.52;2.20;;;;;;;19.69;51.48;101400.06;5029502;28;20100;-64
2022/06/21 12:13:15;;;;;;;2.83;2.33;;;;;;;19.68;50.86;101395.72;5032912;28;20026;-64
2022/06/21 12:16:16;;;;;;;6.13;2.30;;;;;;;19.58;49.69;101388.22;5027980;28;20039;-64
2022/06/21 12:18:45;;;;;;;4.43;2.08;;;;;;;19.64;50.66;101398.03;5032905;28;20040;-64
2022/06/21 12:21:18;;;;;;;3.60;2.33;;;;;;;19.74;49.09;101389.31;5032846;28;20471;-65